Lakehurst NAES, Maxfield Field Lakehurst US
ICAO: KNEL
IATA: NEL
Category: Medium
Scheduled Services: No

Elevation: 101 ft
TransAlt. 18000 ft.

Airport Communications:
MC GUIRE APP/DEP:124.15
GND:118.375
MILLVILLE RDO:113.8
TWR:127.775

KNEL Zoom In..

Runways:

(A) RW 06 length 5002 ft width 150 ft
---- / hdg 62

(B) RW 15 length 5001 ft width 150 ft
---- / hdg 152

(C) RW 24 length 5002 ft width 150 ft
---- / hdg 242

(D) RW 33 length 5001 ft width 150 ft
---- / hdg 332

Location; KNEL
Day. 22 / Time. 02.00 Zulu
* Altimeter: 30.17
* Temperature: 13° c. 55.4°f.
* Wind from: 000° Speed 00 kn.
Dewpoint: 10° c.
Visibility: 10 Statute Miles.
Clouds: Clear (automated report).

KNEL 220200Z AUTO 00000KT 10SM CLR 13/10 A3017 RMK AO2 SLP215 T01330100 PNO $


Wind - Calm.

 
 
jpsmedia.com for Web Design SOUNDCLOUD worldairports.se 2018   terms of use